Seymour, Tennessee
Current Conditions -  °F | °C
As of 3:53 PM on Tuesday 21 Oct 2014 (Local Time) from KTYS Reporting Station
Scattered Clouds Scattered Clouds  
Wind Chill: 67°   Ceiling: Unl
Heat Index: 67°   Visibility: 10mi
Dew Point: 44°   Wind: 9mph
Humidity: 44%   Direction: 260°W
Pressure: 29.98"   Gusts: NA
Location:  35.88°N, 83.79°W
Report Text: KTYS 211953Z 26008KT 10SM SCT060 19/07 A2998 RMK AO2 SLP148 T01940067
Loading
Personal Weather Stations






























Interactive Weather Map
Tropical Storm Tracking
New forecast layout! Learn more

10-Day Weather Forecast

Advertisements
Track Severe Weather on mobile